createdAt,value
2019-01-09T00:03:58.417Z,-6.14
2019-01-09T00:06:24.663Z,-6.08
2019-01-09T00:08:50.925Z,-6.14
2019-01-09T00:11:17.159Z,-6.16
2019-01-09T00:13:43.412Z,-6.13
2019-01-09T00:16:09.674Z,-6.17
2019-01-09T00:18:35.926Z,-6.19
2019-01-09T00:21:02.248Z,-6.27
2019-01-09T00:23:28.488Z,-6.33
2019-01-09T00:25:54.711Z,-6.28
2019-01-09T00:28:20.964Z,-6.25
2019-01-09T00:30:47.179Z,-6.28
2019-01-09T00:33:13.338Z,-6.31
2019-01-09T00:35:39.569Z,-6.32
2019-01-09T00:38:05.799Z,-6.29
2019-01-09T00:40:31.929Z,-6.31
2019-01-09T00:42:58.182Z,-6.36
2019-01-09T00:45:24.411Z,-6.36
2019-01-09T00:47:50.638Z,-6.38
2019-01-09T00:50:16.780Z,-6.48
2019-01-09T00:52:43.015Z,-6.52
2019-01-09T00:55:50.560Z,-6.58
2019-01-09T00:58:16.830Z,-6.66
2019-01-09T01:00:43.089Z,-6.72
2019-01-09T01:03:48.865Z,-6.73
2019-01-09T01:06:54.628Z,-6.78
2019-01-09T01:10:02.211Z,-6.87
2019-01-09T01:13:07.956Z,-6.97
2019-01-09T01:16:15.507Z,-7.04
2019-01-09T01:28:35.988Z,-7.36
2019-01-09T01:31:41.764Z,-7.40
2019-01-09T01:34:47.509Z,-7.49
2019-01-09T01:37:53.252Z,-7.53
2019-01-09T01:40:58.990Z,-7.59
2019-01-09T01:44:04.736Z,-7.63
2019-01-09T01:47:10.507Z,-7.66
2019-01-09T01:50:16.254Z,-7.67
2019-01-09T01:53:22.043Z,-7.68
2019-01-09T02:02:29.649Z,-7.73
2019-01-09T02:05:37.178Z,-7.72
2019-01-09T02:32:43.528Z,-7.75
2019-01-09T02:35:09.772Z,-7.71
2019-01-09T02:37:36.021Z,-7.72
2019-01-09T02:40:02.255Z,-7.76
2019-01-09T02:42:28.403Z,-7.79
2019-01-09T02:44:54.653Z,-7.82
2019-01-09T02:47:20.912Z,-7.83
2019-01-09T02:49:47.153Z,-7.83
2019-01-09T02:52:13.404Z,-7.76
2019-01-09T02:54:39.636Z,-7.70
2019-01-09T02:57:05.783Z,-7.68
2019-01-09T02:59:32.034Z,-7.67
2019-01-09T03:01:58.261Z,-7.65
2019-01-09T03:04:24.497Z,-7.69
2019-01-09T03:06:50.843Z,-7.77
2019-01-09T03:09:17.079Z,-7.82
2019-01-09T03:11:43.317Z,-7.89
2019-01-09T03:14:09.569Z,-7.91
2019-01-09T03:16:35.818Z,-7.93
2019-01-09T03:19:02.067Z,-7.94
2019-01-09T03:21:28.400Z,-7.97
2019-01-09T03:23:54.560Z,-7.99
2019-01-09T03:26:20.805Z,-7.99
2019-01-09T03:28:47.058Z,-8.00
2019-01-09T03:31:13.217Z,-7.95
2019-01-09T03:33:39.448Z,-7.93
2019-01-09T03:36:05.692Z,-7.93
2019-01-09T03:38:31.938Z,-7.85
2019-01-09T03:40:58.173Z,-7.73
2019-01-09T03:43:24.425Z,-7.58
2019-01-09T03:45:50.650Z,-7.46
2019-01-09T03:48:16.801Z,-7.35
2019-01-09T03:50:43.058Z,-7.26
2019-01-09T03:53:09.301Z,-7.13
2019-01-09T03:55:35.575Z,-7.08
2019-01-09T03:58:01.790Z,-7.06
2019-01-09T04:00:27.925Z,-6.99
2019-01-09T04:02:54.064Z,-6.94
2019-01-09T04:05:20.327Z,-6.87
2019-01-09T04:07:46.563Z,-6.68
2019-01-09T04:10:12.711Z,-6.53
2019-01-09T04:12:38.944Z,-6.46
2019-01-09T04:15:46.512Z,-6.35
2019-01-09T04:18:12.768Z,-6.29
2019-01-09T04:20:38.900Z,-6.20
2019-01-09T04:23:05.143Z,-6.06
2019-01-09T04:25:31.393Z,-6.07
2019-01-09T04:27:57.632Z,-6.17
2019-01-09T04:30:23.883Z,-6.27
2019-01-09T04:32:50.008Z,-6.31
2019-01-09T04:35:16.263Z,-6.35
2019-01-09T04:37:42.483Z,-6.40
2019-01-09T04:40:08.764Z,-6.38
2019-01-09T04:42:34.999Z,-6.47
2019-01-09T04:45:01.444Z,-6.56
2019-01-09T04:47:27.650Z,-6.60
2019-01-09T04:49:53.780Z,-6.61
2019-01-09T04:52:20.016Z,-6.67
2019-01-09T04:54:46.257Z,-6.74
2019-01-09T04:57:12.495Z,-6.82
2019-01-09T04:59:38.848Z,-6.92
2019-01-09T05:02:05.078Z,-6.97
2019-01-09T05:04:31.334Z,-7.03
2019-01-09T05:07:00.701Z,-7.09
2019-01-09T05:09:25.733Z,-7.11
2019-01-09T05:11:51.983Z,-7.17
2019-01-09T05:14:18.233Z,-7.21
2019-01-09T05:16:44.396Z,-7.27
2019-01-09T05:19:10.634Z,-7.33
2019-01-09T05:21:36.888Z,-7.32
2019-01-09T05:24:03.145Z,-7.29
2019-01-09T05:26:29.291Z,-7.31
2019-01-09T05:28:55.524Z,-7.32
2019-01-09T05:31:21.794Z,-7.34
2019-01-09T05:33:48.018Z,-7.29
2019-01-09T05:36:14.269Z,-7.25
2019-01-09T05:38:40.496Z,-7.19
2019-01-09T05:41:06.656Z,-7.17
2019-01-09T05:43:32.887Z,-7.17
2019-01-09T05:45:59.036Z,-7.10
2019-01-09T05:48:25.271Z,-7.10
2019-01-09T05:50:51.502Z,-7.15
2019-01-09T05:53:17.741Z,-7.17
2019-01-09T05:55:43.997Z,-7.22
2019-01-09T05:58:10.237Z,-7.27
2019-01-09T06:00:36.498Z,-7.31
2019-01-09T06:03:02.732Z,-7.37
2019-01-09T06:05:28.967Z,-7.41
2019-01-09T06:08:07.606Z,-7.41
2019-01-09T06:13:06.472Z,-7.49
2019-01-09T06:15:32.832Z,-7.58
2019-01-09T06:17:59.056Z,-7.67
2019-01-09T06:20:25.303Z,-7.72
2019-01-09T06:22:51.463Z,-7.78
2019-01-09T06:25:17.600Z,-7.79
2019-01-09T06:27:43.844Z,-7.85
2019-01-09T06:30:10.124Z,-7.93
2019-01-09T06:32:36.420Z,-8.03
2019-01-09T06:35:02.758Z,-8.12
2019-01-09T06:37:29.013Z,-8.18
2019-01-09T06:39:55.249Z,-8.14
2019-01-09T06:42:21.514Z,-8.18
2019-01-09T06:44:47.648Z,-8.27
2019-01-09T06:47:13.897Z,-8.35
2019-01-09T06:49:40.127Z,-8.37
2019-01-09T06:52:06.394Z,-8.37
2019-01-09T06:54:32.669Z,-8.40
2019-01-09T06:56:58.910Z,-8.40
2019-01-09T06:59:25.200Z,-8.41
2019-01-09T07:01:51.497Z,-8.42
2019-01-09T07:04:17.801Z,-8.37
2019-01-09T07:06:44.083Z,-8.38
2019-01-09T07:09:10.317Z,-8.42
2019-01-09T07:11:36.549Z,-8.50
2019-01-09T07:14:02.810Z,-8.55
2019-01-09T07:16:29.092Z,-8.58
2019-01-09T07:18:55.324Z,-8.65
2019-01-09T07:21:21.569Z,-8.70
2019-01-09T07:23:47.829Z,-8.73
2019-01-09T07:26:14.064Z,-8.77
2019-01-09T07:28:41.807Z,-8.83
2019-01-09T07:31:08.438Z,-8.91
2019-01-09T07:33:34.682Z,-8.96
2019-01-09T07:36:00.916Z,-8.98
2019-01-09T07:38:27.175Z,-9.04
2019-01-09T07:40:53.423Z,-9.05
2019-01-09T07:43:19.675Z,-9.05
2019-01-09T07:45:45.931Z,-9.07
2019-01-09T07:48:12.169Z,-9.11
2019-01-09T07:50:38.298Z,-9.17
2019-01-09T07:53:04.539Z,-9.19
2019-01-09T07:55:30.774Z,-9.23
2019-01-09T07:57:57.019Z,-9.26
2019-01-09T08:00:23.257Z,-9.28
2019-01-09T08:02:49.625Z,-9.30
2019-01-09T08:05:15.761Z,-9.30
2019-01-09T08:07:41.995Z,-9.32
2019-01-09T08:10:49.544Z,-9.36
2019-01-09T08:13:15.692Z,-9.41
2019-01-09T08:15:41.923Z,-9.52
2019-01-09T08:18:08.163Z,-9.59
2019-01-09T08:20:34.390Z,-9.70
2019-01-09T08:23:00.640Z,-9.75
2019-01-09T08:25:26.771Z,-9.75
2019-01-09T08:27:52.921Z,-9.75
2019-01-09T08:30:19.165Z,-9.77
2019-01-09T08:32:45.295Z,-9.88
2019-01-09T08:35:11.547Z,-9.96
2019-01-09T08:37:37.786Z,-10.03
2019-01-09T08:40:45.337Z,-10.09
2019-01-09T08:43:11.664Z,-10.11
2019-01-09T08:45:37.909Z,-10.15
2019-01-09T08:48:04.056Z,-10.14
2019-01-09T08:50:30.294Z,-10.16
2019-01-09T08:52:56.521Z,-10.24
2019-01-09T08:55:22.676Z,-10.26
2019-01-09T08:57:48.902Z,-10.25
2019-01-09T09:00:15.160Z,-10.30
2019-01-09T09:02:41.395Z,-10.27
2019-01-09T09:05:07.635Z,-10.30
2019-01-09T09:10:41.223Z,-10.27
2019-01-09T09:13:48.778Z,-10.26
2019-01-09T09:16:15.032Z,-10.26
2019-01-09T09:18:41.284Z,-10.31
2019-01-09T09:21:07.562Z,-10.33
2019-01-09T09:23:33.789Z,-10.30
2019-01-09T09:25:59.921Z,-10.32
2019-01-09T09:28:26.159Z,-10.32
2019-01-09T09:30:52.405Z,-10.28
2019-01-09T09:33:18.638Z,-10.25
2019-01-09T09:35:44.880Z,-10.24
2019-01-09T09:38:11.022Z,-10.25
2019-01-09T09:40:37.275Z,-10.26
2019-01-09T09:43:03.509Z,-10.25
2019-01-09T09:45:29.661Z,-10.25
2019-01-09T09:47:55.896Z,-10.22
2019-01-09T09:50:22.140Z,-10.21
2019-01-09T09:52:48.275Z,-10.19
2019-01-09T09:55:14.420Z,-10.18
2019-01-09T09:57:40.668Z,-10.19
2019-01-09T10:00:28.485Z,-10.18
2019-01-09T10:02:54.629Z,-10.22
2019-01-09T10:05:20.875Z,-10.19
2019-01-09T10:07:47.108Z,-10.17
2019-01-09T10:13:09.908Z,-10.07
2019-01-09T10:15:36.063Z,-10.03
2019-01-09T10:18:02.318Z,-10.01
2019-01-09T10:20:28.570Z,-9.98
2019-01-09T10:22:54.719Z,-9.93
2019-01-09T10:25:20.972Z,-9.88
2019-01-09T10:27:47.119Z,-9.87
2019-01-09T10:30:33.087Z,-9.84
2019-01-09T10:32:59.330Z,-9.80
2019-01-09T10:35:25.604Z,-9.77
2019-01-09T10:37:51.850Z,-9.75
2019-01-09T10:43:32.229Z,-9.65
2019-01-09T10:45:58.480Z,-9.61
2019-01-09T10:48:24.724Z,-9.57
2019-01-09T10:50:50.959Z,-9.58
2019-01-09T10:53:17.203Z,-9.57
2019-01-09T10:55:43.465Z,-9.52
2019-01-09T10:58:09.745Z,-9.43
2019-01-09T11:00:35.969Z,-9.44
2019-01-09T11:05:56.139Z,-9.35
2019-01-09T11:08:22.396Z,-9.30
2019-01-09T11:10:48.627Z,-9.29
2019-01-09T11:13:14.895Z,-9.28
2019-01-09T11:15:41.031Z,-9.25
2019-01-09T11:18:07.279Z,-9.16
2019-01-09T11:20:33.515Z,-9.19
2019-01-09T11:22:59.764Z,-9.19
2019-01-09T11:25:26.099Z,-9.20
2019-01-09T11:27:52.343Z,-9.21
2019-01-09T11:30:18.772Z,-9.19
2019-01-09T11:32:45.010Z,-9.19
2019-01-09T11:38:24.752Z,-9.18
2019-01-09T11:40:50.986Z,-9.18
2019-01-09T11:43:17.232Z,-9.20
2019-01-09T11:45:43.463Z,-9.26
2019-01-09T11:48:09.707Z,-9.27
2019-01-09T11:50:35.944Z,-9.24
2019-01-09T11:53:02.193Z,-9.24
2019-01-09T11:55:28.420Z,-9.27
2019-01-09T11:57:54.677Z,-9.28
2019-01-09T12:03:34.989Z,-9.34
2019-01-09T12:06:01.216Z,-9.36
2019-01-09T12:08:27.457Z,-9.41
2019-01-09T12:10:53.687Z,-9.47
2019-01-09T12:13:19.929Z,-9.52
2019-01-09T12:15:46.173Z,-9.53
2019-01-09T12:18:12.325Z,-9.56
2019-01-09T12:20:38.575Z,-9.73
2019-01-09T12:23:04.732Z,-9.67
2019-01-09T12:25:30.993Z,-9.71
2019-01-09T12:27:57.221Z,-9.72
2019-01-09T12:31:04.773Z,-9.74
2019-01-09T12:33:31.034Z,-9.82
2019-01-09T12:35:57.277Z,-9.90
2019-01-09T12:38:23.523Z,-9.92
2019-01-09T12:40:49.769Z,-10.02
2019-01-09T12:43:16.013Z,-10.08
2019-01-09T12:45:42.162Z,-10.15
2019-01-09T12:48:08.395Z,-10.17
2019-01-09T12:50:34.533Z,-10.19
2019-01-09T12:53:00.765Z,-10.21
2019-01-09T12:55:27.008Z,-10.26
2019-01-09T12:57:53.241Z,-10.31
2019-01-09T13:00:39.229Z,-10.39
2019-01-09T13:03:05.468Z,-10.47
2019-01-09T13:05:31.724Z,-10.56
2019-01-09T13:07:57.955Z,-10.61
2019-01-09T13:10:24.189Z,-10.67
2019-01-09T13:12:50.333Z,-10.74
2019-01-09T13:15:16.579Z,-10.81
2019-01-09T13:17:42.926Z,-10.83
2019-01-09T13:20:30.728Z,-10.86
2019-01-09T13:22:56.864Z,-10.93
2019-01-09T13:25:23.101Z,-11.00
2019-01-09T13:27:49.327Z,-11.07
2019-01-09T13:30:56.880Z,-11.14
2019-01-09T13:33:23.107Z,-11.20
2019-01-09T13:35:49.362Z,-11.25
2019-01-09T13:38:15.673Z,-11.30
2019-01-09T13:40:41.841Z,-11.38
2019-01-09T13:43:08.068Z,-11.45
2019-01-09T13:45:34.319Z,-11.52
2019-01-09T13:48:00.440Z,-11.53
2019-01-09T13:50:26.586Z,-11.54
2019-01-09T13:52:52.805Z,-11.56
2019-01-09T13:55:19.041Z,-11.57
2019-01-09T13:57:45.358Z,-11.70
2019-01-09T14:00:31.264Z,-11.66
2019-01-09T14:02:57.496Z,-11.77
2019-01-09T14:05:23.741Z,-11.87
2019-01-09T14:07:49.970Z,-11.89
2019-01-09T14:10:57.521Z,-11.89
2019-01-09T14:13:23.761Z,-11.92
2019-01-09T14:15:50.011Z,-12.00
2019-01-09T14:18:16.145Z,-12.03
2019-01-09T14:20:42.376Z,-12.06
2019-01-09T14:23:08.628Z,-12.05
2019-01-09T14:25:34.853Z,-12.07
2019-01-09T14:28:01.594Z,-12.16
2019-01-09T14:30:29.227Z,-12.28
2019-01-09T14:32:55.374Z,-12.34
2019-01-09T14:35:21.629Z,-12.35
2019-01-09T14:37:47.859Z,-12.41
2019-01-09T14:40:37.245Z,-12.51
2019-01-09T14:43:03.799Z,-12.56
2019-01-09T14:45:30.026Z,-12.59
2019-01-09T14:47:56.170Z,-12.61
2019-01-09T14:51:03.754Z,-12.74
2019-01-09T14:53:30.007Z,-12.81
2019-01-09T14:55:56.248Z,-12.89
2019-01-09T14:58:22.500Z,-12.94
2019-01-09T15:00:48.856Z,-12.97
2019-01-09T15:03:15.067Z,-12.98
2019-01-09T15:05:41.296Z,-12.98
2019-01-09T15:08:07.538Z,-12.99
2019-01-09T15:10:33.660Z,-13.04
2019-01-09T15:12:59.895Z,-13.08
2019-01-09T15:18:33.495Z,-13.10
2019-01-09T15:20:59.723Z,-13.07
2019-01-09T15:23:25.968Z,-13.05
2019-01-09T15:25:52.109Z,-13.03
2019-01-09T15:28:18.335Z,-13.11
2019-01-09T15:30:44.467Z,-13.17
2019-01-09T15:33:10.626Z,-13.25
2019-01-09T15:35:36.844Z,-13.31
2019-01-09T15:38:03.181Z,-13.31
2019-01-09T15:40:29.402Z,-13.28
2019-01-09T15:42:55.647Z,-13.34
2019-01-09T15:48:11.983Z,-13.47
2019-01-09T15:50:38.212Z,-13.50
2019-01-09T15:53:04.463Z,-13.50
2019-01-09T15:55:30.686Z,-13.53
2019-01-09T15:57:57.074Z,-13.61
2019-01-09T16:00:43.062Z,-13.67
2019-01-09T16:03:09.308Z,-13.69
2019-01-09T16:05:35.553Z,-13.74
2019-01-09T16:08:01.675Z,-13.80
2019-01-09T16:10:27.915Z,-13.83
2019-01-09T16:12:54.041Z,-13.89
2019-01-09T16:18:13.762Z,-13.96
2019-01-09T16:20:40.001Z,-14.02
2019-01-09T16:23:06.226Z,-14.05
2019-01-09T16:25:32.367Z,-14.04
2019-01-09T16:27:58.590Z,-14.07
2019-01-09T16:31:04.333Z,-14.09
2019-01-09T16:33:30.559Z,-14.09
2019-01-09T16:35:56.794Z,-14.09
2019-01-09T16:38:22.922Z,-14.11
2019-01-09T16:40:49.162Z,-14.14
2019-01-09T16:43:15.479Z,-14.16
2019-01-09T16:45:41.621Z,-14.15
2019-01-09T16:48:07.841Z,-14.16
2019-01-09T16:50:34.191Z,-14.18
2019-01-09T16:53:00.316Z,-14.23
2019-01-09T16:55:26.653Z,-14.27
2019-01-09T16:57:59.676Z,-14.31
2019-01-09T17:01:07.229Z,-14.33
2019-01-09T17:03:33.462Z,-14.37
2019-01-09T17:05:59.695Z,-14.49
2019-01-09T17:08:25.925Z,-14.55
2019-01-09T17:10:52.188Z,-14.60
2019-01-09T17:13:18.408Z,-14.68
2019-01-09T17:15:46.547Z,-14.76
2019-01-09T17:18:12.886Z,-14.84
2019-01-09T17:20:39.026Z,-14.92
2019-01-09T17:23:05.257Z,-14.93
2019-01-09T17:25:31.500Z,-14.92
2019-01-09T17:27:57.732Z,-14.93
2019-01-09T17:33:26.470Z,-15.06
2019-01-09T17:35:52.630Z,-15.22
2019-01-09T17:38:20.763Z,-15.32
2019-01-09T17:40:47.006Z,-15.38
2019-01-09T17:43:13.224Z,-15.51
2019-01-09T17:45:39.492Z,-15.64
2019-01-09T17:48:05.722Z,-15.77
2019-01-09T17:51:13.264Z,-15.85
2019-01-09T17:53:39.508Z,-15.88
2019-01-09T17:56:05.745Z,-15.90
2019-01-09T17:58:32.074Z,-15.98
2019-01-09T18:00:58.379Z,-16.05
2019-01-09T18:03:24.621Z,-16.12
2019-01-09T18:08:38.468Z,-16.15
2019-01-09T18:14:05.471Z,-16.18
2019-01-09T18:16:31.726Z,-16.17
2019-01-09T18:18:57.963Z,-16.19
2019-01-09T18:21:24.088Z,-16.23
2019-01-09T18:23:50.322Z,-16.27
2019-01-09T18:26:16.642Z,-16.33
2019-01-09T18:28:42.778Z,-16.40
2019-01-09T18:34:23.089Z,-16.48
2019-01-09T18:37:30.653Z,-16.55
2019-01-09T18:40:36.389Z,-16.56
2019-01-09T18:43:42.158Z,-16.57
2019-01-09T18:46:40.716Z,-16.58
2019-01-09T18:49:46.467Z,-16.59
2019-01-09T18:55:13.247Z,-16.61
2019-01-09T18:57:39.815Z,-16.64
2019-01-09T19:00:25.813Z,-16.63
2019-01-09T19:02:51.957Z,-16.63
2019-01-09T19:05:18.190Z,-16.61
2019-01-09T19:07:44.624Z,-16.67
2019-01-09T19:10:30.729Z,-16.72
2019-01-09T19:12:56.963Z,-16.77
2019-01-09T19:15:23.311Z,-16.80
2019-01-09T19:17:49.559Z,-16.82
2019-01-09T19:20:16.111Z,-16.82
2019-01-09T19:22:42.547Z,-16.82
2019-01-09T19:25:50.119Z,-16.83
2019-01-09T19:28:16.473Z,-16.83
2019-01-09T19:30:44.913Z,-16.87
2019-01-09T19:33:11.136Z,-16.87
2019-01-09T19:35:37.381Z,-16.94
2019-01-09T19:38:03.615Z,-17.00
2019-01-09T19:40:29.865Z,-17.06
2019-01-09T19:42:56.001Z,-17.11
2019-01-09T19:45:22.237Z,-17.10
2019-01-09T19:47:48.361Z,-17.08
2019-01-09T19:50:42.327Z,-17.09
2019-01-09T19:53:02.680Z,-17.11
2019-01-09T19:55:28.932Z,-17.12
2019-01-09T19:57:55.076Z,-17.13
2019-01-09T20:01:02.629Z,-17.15
2019-01-09T20:03:28.893Z,-17.12
2019-01-09T20:05:55.238Z,-17.13
2019-01-09T20:08:21.468Z,-17.22
2019-01-09T20:10:47.703Z,-17.30
2019-01-09T20:13:13.973Z,-17.39
2019-01-09T20:15:40.118Z,-17.44
2019-01-09T20:18:06.513Z,-17.54
2019-01-09T20:20:32.739Z,-17.60
2019-01-09T20:22:58.977Z,-17.65
2019-01-09T20:25:25.266Z,-17.65
2019-01-09T20:27:51.373Z,-17.60
2019-01-09T20:30:58.905Z,-17.59
2019-01-09T20:33:25.160Z,-17.55
2019-01-09T20:35:51.326Z,-17.51
2019-01-09T20:38:17.522Z,-17.49
2019-01-09T20:40:43.890Z,-17.45
2019-01-09T20:43:10.105Z,-17.46
2019-01-09T20:45:36.351Z,-17.46
2019-01-09T20:48:02.493Z,-17.53
2019-01-09T20:53:22.660Z,-17.76
2019-01-09T20:55:49.146Z,-17.81
2019-01-09T20:58:15.306Z,-17.84
2019-01-09T21:00:41.489Z,-17.89
2019-01-09T21:05:41.687Z,-17.89
2019-01-09T21:08:07.919Z,-17.90
2019-01-09T21:10:34.188Z,-17.90
2019-01-09T21:13:00.320Z,-17.86
2019-01-09T21:15:26.540Z,-17.76
2019-01-09T21:17:52.767Z,-17.73
2019-01-09T21:20:38.776Z,-17.78
2019-01-09T21:23:04.938Z,-17.80
2019-01-09T21:25:31.055Z,-17.83
2019-01-09T21:27:57.195Z,-17.87
2019-01-09T21:31:04.732Z,-17.90
2019-01-09T21:33:30.979Z,-17.94
2019-01-09T21:35:57.193Z,-17.93
2019-01-09T21:38:23.333Z,-17.93
2019-01-09T21:40:49.462Z,-17.96
2019-01-09T21:43:15.594Z,-17.97
2019-01-09T21:45:41.822Z,-17.92
2019-01-09T21:48:07.956Z,-17.90
2019-01-09T21:50:34.075Z,-18.01
2019-01-09T21:53:00.212Z,-18.05
2019-01-09T21:55:26.333Z,-18.02
2019-01-09T21:57:52.457Z,-17.90
2019-01-09T22:00:59.984Z,-17.93
2019-01-09T22:03:26.301Z,-18.00
2019-01-09T22:05:52.442Z,-18.09
2019-01-09T22:11:12.248Z,-18.17
2019-01-09T22:13:38.412Z,-18.21
2019-01-09T22:16:04.597Z,-18.24
2019-01-09T22:18:30.896Z,-18.29
2019-01-09T22:20:57.055Z,-18.29
2019-01-09T22:23:23.742Z,-18.27
2019-01-09T22:28:26.409Z,-18.30
2019-01-09T22:30:52.563Z,-18.29
2019-01-09T22:33:18.727Z,-18.30
2019-01-09T22:35:44.896Z,-18.31
2019-01-09T22:38:11.068Z,-18.33
2019-01-09T22:40:37.325Z,-18.35
2019-01-09T22:43:03.494Z,-18.34
2019-01-09T22:45:29.683Z,-18.41
2019-01-09T22:47:55.928Z,-18.48
2019-01-09T22:53:19.095Z,-18.45
2019-01-09T22:55:45.280Z,-18.49
2019-01-09T22:58:11.448Z,-18.54
2019-01-09T23:03:51.747Z,-18.56
2019-01-09T23:06:18.200Z,-18.66
2019-01-09T23:08:44.570Z,-18.71
2019-01-09T23:11:10.838Z,-18.73
2019-01-09T23:13:37.197Z,-18.74
2019-01-09T23:16:44.791Z,-18.70
2019-01-09T23:19:11.058Z,-18.69
2019-01-09T23:21:37.355Z,-18.69
2019-01-09T23:24:03.513Z,-18.68
2019-01-09T23:26:29.707Z,-18.66
2019-01-09T23:28:56.000Z,-18.67
2019-01-09T23:31:22.379Z,-18.60
2019-01-09T23:33:48.687Z,-18.66
2019-01-09T23:36:14.928Z,-18.68
2019-01-09T23:38:41.221Z,-18.66
2019-01-09T23:41:07.494Z,-18.70
2019-01-09T23:43:33.786Z,-18.71
2019-01-09T23:45:59.952Z,-18.68
2019-01-09T23:48:26.164Z,-18.65
2019-01-09T23:50:52.450Z,-18.66
2019-01-09T23:53:18.620Z,-18.58
2019-01-09T23:55:44.944Z,-18.39
2019-01-09T23:58:11.154Z,-18.30
